sensor_id;sensor_type;location;lat;lon;timestamp;P1;durP1;ratioP1;P2;durP2;ratioP2
545;SDS011;259;53.304;9.816;2022-11-20T00:02:24;4.10;;;3.80;;
545;SDS011;259;53.304;9.816;2022-11-20T00:04:50;3.43;;;3.23;;
545;SDS011;259;53.304;9.816;2022-11-20T00:07:15;3.40;;;3.10;;
545;SDS011;259;53.304;9.816;2022-11-20T00:09:41;3.83;;;3.53;;
545;SDS011;259;53.304;9.816;2022-11-20T00:12:06;3.23;;;3.03;;
545;SDS011;259;53.304;9.816;2022-11-20T00:14:32;3.00;;;2.80;;
545;SDS011;259;53.304;9.816;2022-11-20T00:16:57;3.40;;;3.10;;
545;SDS011;259;53.304;9.816;2022-11-20T00:19:23;3.27;;;2.97;;
545;SDS011;259;53.304;9.816;2022-11-20T00:21:49;3.10;;;2.90;;
545;SDS011;259;53.304;9.816;2022-11-20T00:24:16;3.80;;;3.43;;
545;SDS011;259;53.304;9.816;2022-11-20T00:26:42;3.30;;;3.10;;
545;SDS011;259;53.304;9.816;2022-11-20T00:29:08;3.53;;;3.23;;
545;SDS011;259;53.304;9.816;2022-11-20T00:31:35;3.40;;;3.10;;
545;SDS011;259;53.304;9.816;2022-11-20T00:34:00;4.00;;;3.70;;
545;SDS011;259;53.304;9.816;2022-11-20T00:36:27;3.47;;;3.20;;
545;SDS011;259;53.304;9.816;2022-11-20T00:38:54;2.90;;;2.70;;
545;SDS011;259;53.304;9.816;2022-11-20T00:41:21;3.30;;;3.00;;
545;SDS011;259;53.304;9.816;2022-11-20T00:43:46;2.70;;;2.53;;
545;SDS011;259;53.304;9.816;2022-11-20T00:46:13;3.30;;;3.07;;
545;SDS011;259;53.304;9.816;2022-11-20T00:48:43;3.40;;;3.10;;
545;SDS011;259;53.304;9.816;2022-11-20T00:51:10;2.77;;;2.57;;
545;SDS011;259;53.304;9.816;2022-11-20T00:53:37;2.80;;;2.60;;
545;SDS011;259;53.304;9.816;2022-11-20T00:56:04;3.10;;;2.80;;
545;SDS011;259;53.304;9.816;2022-11-20T00:58:32;3.40;;;3.10;;
545;SDS011;259;53.304;9.816;2022-11-20T01:01:06;3.33;;;3.13;;
545;SDS011;259;53.304;9.816;2022-11-20T01:03:35;3.27;;;2.97;;
545;SDS011;259;53.304;9.816;2022-11-20T01:06:03;3.10;;;2.80;;
545;SDS011;259;53.304;9.816;2022-11-20T01:08:33;3.50;;;3.20;;
545;SDS011;259;53.304;9.816;2022-11-20T01:11:04;3.10;;;2.90;;
545;SDS011;259;53.304;9.816;2022-11-20T01:13:34;3.00;;;2.80;;
545;SDS011;259;53.304;9.816;2022-11-20T01:16:05;3.57;;;3.33;;
545;SDS011;259;53.304;9.816;2022-11-20T01:18:39;3.00;;;2.80;;
545;SDS011;259;53.304;9.816;2022-11-20T01:21:06;3.23;;;3.03;;
545;SDS011;259;53.304;9.816;2022-11-20T01:23:34;2.80;;;2.60;;
545;SDS011;259;53.304;9.816;2022-11-20T01:26:05;3.30;;;3.10;;
545;SDS011;259;53.304;9.816;2022-11-20T01:28:33;3.10;;;2.90;;
545;SDS011;259;53.304;9.816;2022-11-20T01:30:59;2.60;;;2.40;;
545;SDS011;259;53.304;9.816;2022-11-20T01:33:24;2.53;;;2.33;;
545;SDS011;259;53.304;9.816;2022-11-20T01:35:50;3.00;;;2.80;;
545;SDS011;259;53.304;9.816;2022-11-20T01:38:17;2.57;;;2.37;;
545;SDS011;259;53.304;9.816;2022-11-20T01:40:43;2.63;;;2.43;;
545;SDS011;259;53.304;9.816;2022-11-20T01:43:13;3.17;;;2.90;;
545;SDS011;259;53.304;9.816;2022-11-20T01:48:32;2.77;;;2.53;;
545;SDS011;259;53.304;9.816;2022-11-20T01:54:11;2.40;;;2.30;;
545;SDS011;259;53.304;9.816;2022-11-20T01:56:42;2.70;;;2.50;;
545;SDS011;259;53.304;9.816;2022-11-20T01:59:10;3.37;;;3.17;;
545;SDS011;259;53.304;9.816;2022-11-20T02:01:40;2.77;;;2.57;;
545;SDS011;259;53.304;9.816;2022-11-20T02:04:06;3.10;;;2.90;;
545;SDS011;259;53.304;9.816;2022-11-20T02:06:35;2.40;;;2.30;;
545;SDS011;259;53.304;9.816;2022-11-20T02:09:05;2.80;;;2.60;;
545;SDS011;259;53.304;9.816;2022-11-20T02:11:30;2.83;;;2.63;;
545;SDS011;259;53.304;9.816;2022-11-20T02:13:56;2.70;;;2.50;;
545;SDS011;259;53.304;9.816;2022-11-20T02:16:27;2.87;;;2.67;;
545;SDS011;259;53.304;9.816;2022-11-20T02:19:07;2.90;;;2.70;;
545;SDS011;259;53.304;9.816;2022-11-20T02:24:23;2.70;;;2.50;;
545;SDS011;259;53.304;9.816;2022-11-20T02:26:50;3.00;;;2.50;;
545;SDS011;259;53.304;9.816;2022-11-20T02:29:27;2.60;;;2.40;;
545;SDS011;259;53.304;9.816;2022-11-20T02:32:17;2.43;;;2.33;;
545;SDS011;259;53.304;9.816;2022-11-20T02:34:43;2.73;;;2.53;;
545;SDS011;259;53.304;9.816;2022-11-20T02:37:08;2.47;;;2.37;;
545;SDS011;259;53.304;9.816;2022-11-20T02:39:34;2.63;;;2.43;;
545;SDS011;259;53.304;9.816;2022-11-20T02:42:00;2.70;;;2.50;;
545;SDS011;259;53.304;9.816;2022-11-20T02:44:26;2.40;;;2.20;;
545;SDS011;259;53.304;9.816;2022-11-20T02:46:51;2.70;;;2.50;;
545;SDS011;259;53.304;9.816;2022-11-20T02:49:17;2.40;;;2.30;;
545;SDS011;259;53.304;9.816;2022-11-20T02:51:42;2.33;;;2.13;;
545;SDS011;259;53.304;9.816;2022-11-20T02:54:08;2.77;;;2.67;;
545;SDS011;259;53.304;9.816;2022-11-20T02:56:33;2.63;;;2.53;;
545;SDS011;259;53.304;9.816;2022-11-20T02:58:59;2.63;;;2.43;;
545;SDS011;259;53.304;9.816;2022-11-20T03:01:24;1.93;;;1.83;;
545;SDS011;259;53.304;9.816;2022-11-20T03:03:50;2.87;;;2.67;;
545;SDS011;259;53.304;9.816;2022-11-20T03:06:17;2.60;;;2.40;;
545;SDS011;259;53.304;9.816;2022-11-20T03:08:43;2.27;;;2.17;;
545;SDS011;259;53.304;9.816;2022-11-20T03:11:08;2.90;;;2.70;;
545;SDS011;259;53.304;9.816;2022-11-20T03:13:34;2.80;;;2.60;;
545;SDS011;259;53.304;9.816;2022-11-20T03:16:33;2.50;;;2.30;;
545;SDS011;259;53.304;9.816;2022-11-20T03:18:52;1.73;;;1.63;;
545;SDS011;259;53.304;9.816;2022-11-20T03:21:18;2.30;;;2.13;;
545;SDS011;259;53.304;9.816;2022-11-20T03:23:44;2.43;;;2.30;;
545;SDS011;259;53.304;9.816;2022-11-20T03:26:10;2.03;;;1.93;;
545;SDS011;259;53.304;9.816;2022-11-20T03:28:38;2.73;;;2.57;;
545;SDS011;259;53.304;9.816;2022-11-20T03:31:05;2.37;;;2.17;;
545;SDS011;259;53.304;9.816;2022-11-20T03:33:35;2.60;;;2.40;;
545;SDS011;259;53.304;9.816;2022-11-20T03:36:01;2.73;;;2.53;;
545;SDS011;259;53.304;9.816;2022-11-20T03:38:31;2.30;;;2.20;;
545;SDS011;259;53.304;9.816;2022-11-20T03:40:58;2.13;;;2.03;;
545;SDS011;259;53.304;9.816;2022-11-20T03:43:25;2.27;;;2.17;;
545;SDS011;259;53.304;9.816;2022-11-20T03:45:51;2.77;;;2.57;;
545;SDS011;259;53.304;9.816;2022-11-20T03:48:17;2.27;;;2.17;;
545;SDS011;259;53.304;9.816;2022-11-20T03:50:42;2.50;;;2.30;;
545;SDS011;259;53.304;9.816;2022-11-20T03:53:08;2.03;;;1.93;;
545;SDS011;259;53.304;9.816;2022-11-20T03:55:33;2.37;;;2.27;;
545;SDS011;259;53.304;9.816;2022-11-20T03:57:59;2.50;;;2.30;;
545;SDS011;259;53.304;9.816;2022-11-20T04:00:24;2.50;;;2.30;;
545;SDS011;259;53.304;9.816;2022-11-20T04:02:50;2.30;;;2.20;;
545;SDS011;259;53.304;9.816;2022-11-20T04:05:15;2.83;;;2.60;;
545;SDS011;259;53.304;9.816;2022-11-20T04:07:41;2.17;;;2.07;;
545;SDS011;259;53.304;9.816;2022-11-20T04:10:07;2.20;;;2.10;;
545;SDS011;259;53.304;9.816;2022-11-20T04:12:32;2.00;;;1.90;;
545;SDS011;259;53.304;9.816;2022-11-20T04:14:58;2.20;;;2.10;;
545;SDS011;259;53.304;9.816;2022-11-20T04:17:24;2.23;;;2.13;;
545;SDS011;259;53.304;9.816;2022-11-20T04:19:49;2.63;;;2.43;;
545;SDS011;259;53.304;9.816;2022-11-20T04:22:15;2.20;;;2.00;;
545;SDS011;259;53.304;9.816;2022-11-20T04:24:41;2.43;;;2.30;;
545;SDS011;259;53.304;9.816;2022-11-20T04:27:06;2.60;;;2.40;;
545;SDS011;259;53.304;9.816;2022-11-20T04:29:32;2.30;;;2.10;;
545;SDS011;259;53.304;9.816;2022-11-20T04:31:57;2.60;;;2.40;;
545;SDS011;259;53.304;9.816;2022-11-20T04:34:23;2.77;;;2.57;;
545;SDS011;259;53.304;9.816;2022-11-20T04:36:48;2.63;;;2.43;;
545;SDS011;259;53.304;9.816;2022-11-20T04:39:14;3.30;;;3.00;;
545;SDS011;259;53.304;9.816;2022-11-20T04:41:40;2.60;;;2.40;;
545;SDS011;259;53.304;9.816;2022-11-20T04:44:06;2.87;;;2.67;;
545;SDS011;259;53.304;9.816;2022-11-20T04:46:33;2.80;;;2.60;;
545;SDS011;259;53.304;9.816;2022-11-20T04:49:12;3.57;;;3.00;;
545;SDS011;259;53.304;9.816;2022-11-20T04:51:39;3.40;;;2.87;;
545;SDS011;259;53.304;9.816;2022-11-20T04:54:04;3.80;;;3.47;;
545;SDS011;259;53.304;9.816;2022-11-20T04:56:30;3.10;;;2.80;;
545;SDS011;259;53.304;9.816;2022-11-20T04:58:55;3.90;;;3.60;;
545;SDS011;259;53.304;9.816;2022-11-20T05:01:25;3.20;;;2.90;;
545;SDS011;259;53.304;9.816;2022-11-20T05:03:51;4.10;;;3.33;;
545;SDS011;259;53.304;9.816;2022-11-20T05:06:18;3.20;;;2.90;;
545;SDS011;259;53.304;9.816;2022-11-20T05:08:44;2.93;;;2.50;;
545;SDS011;259;53.304;9.816;2022-11-20T05:11:11;3.60;;;3.30;;
545;SDS011;259;53.304;9.816;2022-11-20T05:13:38;4.53;;;4.13;;
545;SDS011;259;53.304;9.816;2022-11-20T05:16:05;3.73;;;3.20;;
545;SDS011;259;53.304;9.816;2022-11-20T05:18:35;3.50;;;3.10;;
545;SDS011;259;53.304;9.816;2022-11-20T05:21:02;3.80;;;3.40;;
545;SDS011;259;53.304;9.816;2022-11-20T05:23:30;3.80;;;3.47;;
545;SDS011;259;53.304;9.816;2022-11-20T05:25:57;3.60;;;3.13;;
545;SDS011;259;53.304;9.816;2022-11-20T05:28:23;3.40;;;3.10;;
545;SDS011;259;53.304;9.816;2022-11-20T05:30:49;3.73;;;3.33;;
545;SDS011;259;53.304;9.816;2022-11-20T05:33:15;4.33;;;3.93;;
545;SDS011;259;53.304;9.816;2022-11-20T05:35:42;3.63;;;3.33;;
545;SDS011;259;53.304;9.816;2022-11-20T05:38:08;4.07;;;3.70;;
545;SDS011;259;53.304;9.816;2022-11-20T05:40:33;4.07;;;3.77;;
545;SDS011;259;53.304;9.816;2022-11-20T05:42:59;3.70;;;3.40;;
545;SDS011;259;53.304;9.816;2022-11-20T05:45:25;3.70;;;3.40;;
545;SDS011;259;53.304;9.816;2022-11-20T05:47:51;4.10;;;3.70;;
545;SDS011;259;53.304;9.816;2022-11-20T05:50:16;4.47;;;3.80;;
545;SDS011;259;53.304;9.816;2022-11-20T05:52:42;4.47;;;4.07;;
545;SDS011;259;53.304;9.816;2022-11-20T05:55:07;3.63;;;3.33;;
545;SDS011;259;53.304;9.816;2022-11-20T05:57:33;4.33;;;3.93;;
545;SDS011;259;53.304;9.816;2022-11-20T05:59:59;3.43;;;3.13;;
545;SDS011;259;53.304;9.816;2022-11-20T06:02:24;3.40;;;3.10;;
545;SDS011;259;53.304;9.816;2022-11-20T06:04:50;4.10;;;3.50;;
545;SDS011;259;53.304;9.816;2022-11-20T06:07:15;3.50;;;3.17;;
545;SDS011;259;53.304;9.816;2022-11-20T06:09:41;4.53;;;4.13;;
545;SDS011;259;53.304;9.816;2022-11-20T06:12:06;3.93;;;3.50;;
545;SDS011;259;53.304;9.816;2022-11-20T06:14:32;3.73;;;3.43;;
545;SDS011;259;53.304;9.816;2022-11-20T06:16:58;3.87;;;3.57;;
545;SDS011;259;53.304;9.816;2022-11-20T06:19:24;4.13;;;3.73;;
545;SDS011;259;53.304;9.816;2022-11-20T06:21:49;4.20;;;3.30;;
545;SDS011;259;53.304;9.816;2022-11-20T06:24:15;3.67;;;3.37;;
545;SDS011;259;53.304;9.816;2022-11-20T06:26:41;3.50;;;3.20;;
545;SDS011;259;53.304;9.816;2022-11-20T06:29:07;4.60;;;4.20;;
545;SDS011;259;53.304;9.816;2022-11-20T06:31:33;4.37;;;3.70;;
545;SDS011;259;53.304;9.816;2022-11-20T06:34:00;3.17;;;2.87;;
545;SDS011;259;53.304;9.816;2022-11-20T06:36:26;3.43;;;3.13;;
545;SDS011;259;53.304;9.816;2022-11-20T06:38:51;3.43;;;3.13;;
545;SDS011;259;53.304;9.816;2022-11-20T06:41:21;3.67;;;3.37;;
545;SDS011;259;53.304;9.816;2022-11-20T06:43:47;4.63;;;4.23;;
545;SDS011;259;53.304;9.816;2022-11-20T06:46:13;3.40;;;3.10;;
545;SDS011;259;53.304;9.816;2022-11-20T06:48:42;4.23;;;3.83;;
545;SDS011;259;53.304;9.816;2022-11-20T06:51:08;5.10;;;4.60;;
545;SDS011;259;53.304;9.816;2022-11-20T06:53:34;4.10;;;3.80;;
545;SDS011;259;53.304;9.816;2022-11-20T06:56:00;3.90;;;3.57;;
545;SDS011;259;53.304;9.816;2022-11-20T06:58:27;3.90;;;3.50;;
545;SDS011;259;53.304;9.816;2022-11-20T07:00:57;4.07;;;3.73;;
545;SDS011;259;53.304;9.816;2022-11-20T07:03:23;4.70;;;4.30;;
545;SDS011;259;53.304;9.816;2022-11-20T07:05:49;4.03;;;3.73;;
545;SDS011;259;53.304;9.816;2022-11-20T07:08:14;3.60;;;3.30;;
545;SDS011;259;53.304;9.816;2022-11-20T07:10:40;3.90;;;3.60;;
545;SDS011;259;53.304;9.816;2022-11-20T07:13:06;4.03;;;3.63;;
545;SDS011;259;53.304;9.816;2022-11-20T07:15:32;4.17;;;3.73;;
545;SDS011;259;53.304;9.816;2022-11-20T07:18:00;3.87;;;3.57;;
545;SDS011;259;53.304;9.816;2022-11-20T07:20:26;3.83;;;3.53;;
545;SDS011;259;53.304;9.816;2022-11-20T07:22:53;4.07;;;3.67;;
545;SDS011;259;53.304;9.816;2022-11-20T07:25:20;4.60;;;3.57;;
545;SDS011;259;53.304;9.816;2022-11-20T07:27:45;4.00;;;3.23;;
545;SDS011;259;53.304;9.816;2022-11-20T07:30:11;3.37;;;3.07;;
545;SDS011;259;53.304;9.816;2022-11-20T07:32:37;3.83;;;3.53;;
545;SDS011;259;53.304;9.816;2022-11-20T07:35:03;3.87;;;3.57;;
545;SDS011;259;53.304;9.816;2022-11-20T07:37:28;3.90;;;3.50;;
545;SDS011;259;53.304;9.816;2022-11-20T07:39:54;3.80;;;3.50;;
545;SDS011;259;53.304;9.816;2022-11-20T07:42:19;4.07;;;3.60;;
545;SDS011;259;53.304;9.816;2022-11-20T07:44:45;4.07;;;3.77;;
545;SDS011;259;53.304;9.816;2022-11-20T07:47:10;4.30;;;3.90;;
545;SDS011;259;53.304;9.816;2022-11-20T07:49:36;3.73;;;3.43;;
545;SDS011;259;53.304;9.816;2022-11-20T07:52:01;4.40;;;4.00;;
545;SDS011;259;53.304;9.816;2022-11-20T07:54:27;3.70;;;3.40;;
545;SDS011;259;53.304;9.816;2022-11-20T07:56:53;3.43;;;3.23;;
545;SDS011;259;53.304;9.816;2022-11-20T07:59:19;3.90;;;3.60;;
545;SDS011;259;53.304;9.816;2022-11-20T08:01:44;3.90;;;3.60;;
545;SDS011;259;53.304;9.816;2022-11-20T08:04:10;4.07;;;3.70;;
545;SDS011;259;53.304;9.816;2022-11-20T08:06:36;3.60;;;3.40;;
545;SDS011;259;53.304;9.816;2022-11-20T08:09:02;3.60;;;3.40;;
545;SDS011;259;53.304;9.816;2022-11-20T08:11:27;3.90;;;3.60;;
545;SDS011;259;53.304;9.816;2022-11-20T08:14:12;3.67;;;3.37;;
545;SDS011;259;53.304;9.816;2022-11-20T08:16:47;3.87;;;3.57;;
545;SDS011;259;53.304;9.816;2022-11-20T08:19:14;3.87;;;3.57;;
545;SDS011;259;53.304;9.816;2022-11-20T08:21:41;4.00;;;3.70;;
545;SDS011;259;53.304;9.816;2022-11-20T08:24:08;3.83;;;3.53;;
545;SDS011;259;53.304;9.816;2022-11-20T08:26:34;3.70;;;3.40;;
545;SDS011;259;53.304;9.816;2022-11-20T08:29:01;3.70;;;3.40;;
545;SDS011;259;53.304;9.816;2022-11-20T08:31:27;3.67;;;3.37;;
545;SDS011;259;53.304;9.816;2022-11-20T08:33:53;3.50;;;3.30;;
545;SDS011;259;53.304;9.816;2022-11-20T08:36:19;3.77;;;3.47;;
545;SDS011;259;53.304;9.816;2022-11-20T08:38:49;3.27;;;3.00;;
545;SDS011;259;53.304;9.816;2022-11-20T08:41:19;4.10;;;3.80;;
545;SDS011;259;53.304;9.816;2022-11-20T08:43:58;4.17;;;3.77;;
545;SDS011;259;53.304;9.816;2022-11-20T08:46:26;3.83;;;3.53;;
545;SDS011;259;53.304;9.816;2022-11-20T08:48:55;4.20;;;3.80;;
545;SDS011;259;53.304;9.816;2022-11-20T08:51:21;3.80;;;3.50;;
545;SDS011;259;53.304;9.816;2022-11-20T08:53:46;4.87;;;4.47;;
545;SDS011;259;53.304;9.816;2022-11-20T08:56:13;3.30;;;3.00;;
545;SDS011;259;53.304;9.816;2022-11-20T08:58:39;3.63;;;3.27;;
545;SDS011;259;53.304;9.816;2022-11-20T09:01:05;3.80;;;3.50;;
545;SDS011;259;53.304;9.816;2022-11-20T09:03:30;4.17;;;3.87;;
545;SDS011;259;53.304;9.816;2022-11-20T09:05:59;3.63;;;3.33;;
545;SDS011;259;53.304;9.816;2022-11-20T09:08:27;4.50;;;4.10;;
545;SDS011;259;53.304;9.816;2022-11-20T09:10:54;4.70;;;4.05;;
545;SDS011;259;53.304;9.816;2022-11-20T09:13:20;10.40;;;6.43;;
545;SDS011;259;53.304;9.816;2022-11-20T09:15:47;13.30;;;7.40;;
545;SDS011;259;53.304;9.816;2022-11-20T09:18:17;20.47;;;7.23;;
545;SDS011;259;53.304;9.816;2022-11-20T09:20:42;17.97;;;6.80;;
545;SDS011;259;53.304;9.816;2022-11-20T09:23:08;11.83;;;5.97;;
545;SDS011;259;53.304;9.816;2022-11-20T09:25:33;18.47;;;8.17;;
545;SDS011;259;53.304;9.816;2022-11-20T09:27:59;10.13;;;6.60;;
545;SDS011;259;53.304;9.816;2022-11-20T09:30:25;15.37;;;6.73;;
545;SDS011;259;53.304;9.816;2022-11-20T09:32:52;19.20;;;5.77;;
545;SDS011;259;53.304;9.816;2022-11-20T09:35:18;22.50;;;6.70;;
545;SDS011;259;53.304;9.816;2022-11-20T09:37:44;13.93;;;5.07;;
545;SDS011;259;53.304;9.816;2022-11-20T09:40:18;12.67;;;5.37;;
545;SDS011;259;53.304;9.816;2022-11-20T09:53:33;20.63;;;4.93;;
545;SDS011;259;53.304;9.816;2022-11-20T09:56:00;16.33;;;4.87;;
545;SDS011;259;53.304;9.816;2022-11-20T09:58:29;23.60;;;6.07;;
545;SDS011;259;53.304;9.816;2022-11-20T10:01:03;15.00;;;4.63;;
545;SDS011;259;53.304;9.816;2022-11-20T10:07:07;14.17;;;4.90;;
545;SDS011;259;53.304;9.816;2022-11-20T10:09:34;21.37;;;5.83;;
545;SDS011;259;53.304;9.816;2022-11-20T10:12:09;15.83;;;4.70;;
545;SDS011;259;53.304;9.816;2022-11-20T10:23:22;15.13;;;4.60;;
545;SDS011;259;53.304;9.816;2022-11-20T10:31:00;40.90;;;6.83;;
545;SDS011;259;53.304;9.816;2022-11-20T10:33:31;25.33;;;6.00;;
545;SDS011;259;53.304;9.816;2022-11-20T10:36:17;35.90;;;5.57;;
545;SDS011;259;53.304;9.816;2022-11-20T10:38:50;23.27;;;3.97;;
545;SDS011;259;53.304;9.816;2022-11-20T10:41:23;19.13;;;5.97;;
545;SDS011;259;53.304;9.816;2022-11-20T10:43:54;14.50;;;5.00;;
545;SDS011;259;53.304;9.816;2022-11-20T10:46:26;19.67;;;5.10;;
545;SDS011;259;53.304;9.816;2022-11-20T10:49:02;16.50;;;4.33;;
545;SDS011;259;53.304;9.816;2022-11-20T10:54:11;19.17;;;5.60;;
545;SDS011;259;53.304;9.816;2022-11-20T10:56:50;12.73;;;5.10;;
545;SDS011;259;53.304;9.816;2022-11-20T11:02:16;23.33;;;5.50;;
545;SDS011;259;53.304;9.816;2022-11-20T11:04:45;13.60;;;4.47;;
545;SDS011;259;53.304;9.816;2022-11-20T11:07:15;14.07;;;4.70;;
545;SDS011;259;53.304;9.816;2022-11-20T11:09:54;19.57;;;4.00;;
545;SDS011;259;53.304;9.816;2022-11-20T11:12:21;20.00;;;5.70;;
545;SDS011;259;53.304;9.816;2022-11-20T11:14:52;19.13;;;4.77;;
545;SDS011;259;53.304;9.816;2022-11-20T11:17:28;12.90;;;4.27;;
545;SDS011;259;53.304;9.816;2022-11-20T11:20:00;17.17;;;4.47;;
545;SDS011;259;53.304;9.816;2022-11-20T11:22:29;20.50;;;4.60;;
545;SDS011;259;53.304;9.816;2022-11-20T11:24:57;20.30;;;5.27;;
545;SDS011;259;53.304;9.816;2022-11-20T11:27:22;13.87;;;3.87;;
545;SDS011;259;53.304;9.816;2022-11-20T11:29:48;16.60;;;4.50;;
545;SDS011;259;53.304;9.816;2022-11-20T11:34:40;14.93;;;4.30;;
545;SDS011;259;53.304;9.816;2022-11-20T11:37:19;6.63;;;3.33;;
545;SDS011;259;53.304;9.816;2022-11-20T11:39:49;10.93;;;2.60;;
545;SDS011;259;53.304;9.816;2022-11-20T11:42:18;9.43;;;3.50;;
545;SDS011;259;53.304;9.816;2022-11-20T11:44:45;6.83;;;2.87;;
545;SDS011;259;53.304;9.816;2022-11-20T11:47:32;16.47;;;4.40;;
545;SDS011;259;53.304;9.816;2022-11-20T11:50:20;6.93;;;2.97;;
545;SDS011;259;53.304;9.816;2022-11-20T11:58:20;12.37;;;3.20;;
545;SDS011;259;53.304;9.816;2022-11-20T12:01:20;11.37;;;3.47;;
545;SDS011;259;53.304;9.816;2022-11-20T12:04:04;12.83;;;3.23;;
545;SDS011;259;53.304;9.816;2022-11-20T12:06:39;14.67;;;3.63;;
545;SDS011;259;53.304;9.816;2022-11-20T12:09:10;17.30;;;3.00;;
545;SDS011;259;53.304;9.816;2022-11-20T12:11:43;18.33;;;3.97;;
545;SDS011;259;53.304;9.816;2022-11-20T12:14:17;24.40;;;3.80;;
545;SDS011;259;53.304;9.816;2022-11-20T12:16:49;16.90;;;3.63;;
545;SDS011;259;53.304;9.816;2022-11-20T12:19:16;14.40;;;3.37;;
545;SDS011;259;53.304;9.816;2022-11-20T12:24:30;9.77;;;3.40;;
545;SDS011;259;53.304;9.816;2022-11-20T12:35:25;10.00;;;2.60;;
545;SDS011;259;53.304;9.816;2022-11-20T12:40:53;8.50;;;2.63;;
545;SDS011;259;53.304;9.816;2022-11-20T12:49:40;4.83;;;2.40;;
545;SDS011;259;53.304;9.816;2022-11-20T12:52:21;5.33;;;2.27;;
545;SDS011;259;53.304;9.816;2022-11-20T12:57:37;5.83;;;2.87;;
545;SDS011;259;53.304;9.816;2022-11-20T13:02:44;5.93;;;1.80;;
545;SDS011;259;53.304;9.816;2022-11-20T13:05:20;7.23;;;2.27;;
545;SDS011;259;53.304;9.816;2022-11-20T13:07:51;11.77;;;3.30;;
545;SDS011;259;53.304;9.816;2022-11-20T13:10:23;4.20;;;2.47;;
545;SDS011;259;53.304;9.816;2022-11-20T13:12:57;7.40;;;2.57;;
545;SDS011;259;53.304;9.816;2022-11-20T13:15:33;7.13;;;2.57;;
545;SDS011;259;53.304;9.816;2022-11-20T13:18:13;4.00;;;2.40;;
545;SDS011;259;53.304;9.816;2022-11-20T13:20:43;3.13;;;2.00;;
545;SDS011;259;53.304;9.816;2022-11-20T13:23:10;4.00;;;1.80;;
545;SDS011;259;53.304;9.816;2022-11-20T13:25:37;3.60;;;1.63;;
545;SDS011;259;53.304;9.816;2022-11-20T13:30:35;3.73;;;1.80;;
545;SDS011;259;53.304;9.816;2022-11-20T13:33:23;3.07;;;1.83;;
545;SDS011;259;53.304;9.816;2022-11-20T13:36:01;4.30;;;2.20;;
545;SDS011;259;53.304;9.816;2022-11-20T13:38:47;10.77;;;2.40;;
545;SDS011;259;53.304;9.816;2022-11-20T13:44:04;4.63;;;1.80;;
545;SDS011;259;53.304;9.816;2022-11-20T13:46:48;4.57;;;2.10;;
545;SDS011;259;53.304;9.816;2022-11-20T13:49:27;1.97;;;1.77;;
545;SDS011;259;53.304;9.816;2022-11-20T13:58:15;5.37;;;1.60;;
545;SDS011;259;53.304;9.816;2022-11-20T14:03:33;1.50;;;1.40;;
545;SDS011;259;53.304;9.816;2022-11-20T14:06:25;2.87;;;1.70;;
545;SDS011;259;53.304;9.816;2022-11-20T14:08:52;2.60;;;1.47;;
545;SDS011;259;53.304;9.816;2022-11-20T14:11:19;2.23;;;1.20;;
545;SDS011;259;53.304;9.816;2022-11-20T14:16:23;8.13;;;1.70;;
545;SDS011;259;53.304;9.816;2022-11-20T14:18:49;7.30;;;2.03;;
545;SDS011;259;53.304;9.816;2022-11-20T14:21:25;5.27;;;1.70;;
545;SDS011;259;53.304;9.816;2022-11-20T14:23:54;14.83;;;2.80;;
545;SDS011;259;53.304;9.816;2022-11-20T14:26:29;6.50;;;2.00;;
545;SDS011;259;53.304;9.816;2022-11-20T14:28:56;13.87;;;3.30;;
545;SDS011;259;53.304;9.816;2022-11-20T14:31:25;12.80;;;3.07;;
545;SDS011;259;53.304;9.816;2022-11-20T14:33:52;10.67;;;3.13;;
545;SDS011;259;53.304;9.816;2022-11-20T14:36:23;12.77;;;3.60;;
545;SDS011;259;53.304;9.816;2022-11-20T14:38:50;10.80;;;4.10;;
545;SDS011;259;53.304;9.816;2022-11-20T14:41:20;6.40;;;2.13;;
545;SDS011;259;53.304;9.816;2022-11-20T14:43:49;9.73;;;2.57;;
545;SDS011;259;53.304;9.816;2022-11-20T14:46:20;9.37;;;2.50;;
545;SDS011;259;53.304;9.816;2022-11-20T14:48:47;4.80;;;1.70;;
545;SDS011;259;53.304;9.816;2022-11-20T14:51:25;4.90;;;1.93;;
545;SDS011;259;53.304;9.816;2022-11-20T14:54:07;7.37;;;2.20;;
545;SDS011;259;53.304;9.816;2022-11-20T14:56:34;8.70;;;2.27;;
545;SDS011;259;53.304;9.816;2022-11-20T14:58:59;3.50;;;2.10;;
545;SDS011;259;53.304;9.816;2022-11-20T15:01:26;4.83;;;2.43;;
545;SDS011;259;53.304;9.816;2022-11-20T15:04:26;8.63;;;1.77;;
545;SDS011;259;53.304;9.816;2022-11-20T15:06:52;3.37;;;1.60;;
545;SDS011;259;53.304;9.816;2022-11-20T15:09:19;3.77;;;1.53;;
545;SDS011;259;53.304;9.816;2022-11-20T15:11:58;4.40;;;1.90;;
545;SDS011;259;53.304;9.816;2022-11-20T15:14:26;4.77;;;1.87;;
545;SDS011;259;53.304;9.816;2022-11-20T15:16:53;4.03;;;2.10;;
545;SDS011;259;53.304;9.816;2022-11-20T15:19:22;2.57;;;1.60;;
545;SDS011;259;53.304;9.816;2022-11-20T15:21:49;3.70;;;2.17;;
545;SDS011;259;53.304;9.816;2022-11-20T15:24:16;2.20;;;1.80;;
545;SDS011;259;53.304;9.816;2022-11-20T15:26:42;2.07;;;1.73;;
545;SDS011;259;53.304;9.816;2022-11-20T15:29:08;4.20;;;2.20;;
545;SDS011;259;53.304;9.816;2022-11-20T15:31:36;1.60;;;1.43;;
545;SDS011;259;53.304;9.816;2022-11-20T15:34:09;3.00;;;1.80;;
545;SDS011;259;53.304;9.816;2022-11-20T15:36:37;5.17;;;1.73;;
545;SDS011;259;53.304;9.816;2022-11-20T15:39:03;3.43;;;1.70;;
545;SDS011;259;53.304;9.816;2022-11-20T15:41:29;3.63;;;1.90;;
545;SDS011;259;53.304;9.816;2022-11-20T15:43:54;2.83;;;1.80;;
545;SDS011;259;53.304;9.816;2022-11-20T15:46:24;2.60;;;2.50;;
545;SDS011;259;53.304;9.816;2022-11-20T15:49:02;3.90;;;1.70;;
545;SDS011;259;53.304;9.816;2022-11-20T15:51:29;2.10;;;1.90;;
545;SDS011;259;53.304;9.816;2022-11-20T15:53:58;2.87;;;1.83;;
545;SDS011;259;53.304;9.816;2022-11-20T15:56:24;4.50;;;1.90;;
545;SDS011;259;53.304;9.816;2022-11-20T15:58:50;2.27;;;1.97;;
545;SDS011;259;53.304;9.816;2022-11-20T16:01:17;1.70;;;1.60;;
545;SDS011;259;53.304;9.816;2022-11-20T16:03:45;3.77;;;1.37;;
545;SDS011;259;53.304;9.816;2022-11-20T16:06:11;1.60;;;1.50;;
545;SDS011;259;53.304;9.816;2022-11-20T16:08:36;1.77;;;1.67;;
545;SDS011;259;53.304;9.816;2022-11-20T16:11:02;1.50;;;1.40;;
545;SDS011;259;53.304;9.816;2022-11-20T16:13:28;2.20;;;1.60;;
545;SDS011;259;53.304;9.816;2022-11-20T16:16:21;2.13;;;2.03;;
545;SDS011;259;53.304;9.816;2022-11-20T16:18:49;1.67;;;1.57;;
545;SDS011;259;53.304;9.816;2022-11-20T16:21:15;2.20;;;2.10;;
545;SDS011;259;53.304;9.816;2022-11-20T16:23:40;1.70;;;1.60;;
545;SDS011;259;53.304;9.816;2022-11-20T16:26:14;2.27;;;2.07;;
545;SDS011;259;53.304;9.816;2022-11-20T16:28:41;2.10;;;1.90;;
545;SDS011;259;53.304;9.816;2022-11-20T16:31:12;3.10;;;2.20;;
545;SDS011;259;53.304;9.816;2022-11-20T16:33:40;2.20;;;2.00;;
545;SDS011;259;53.304;9.816;2022-11-20T16:36:06;2.20;;;2.00;;
545;SDS011;259;53.304;9.816;2022-11-20T16:38:33;2.30;;;2.20;;
545;SDS011;259;53.304;9.816;2022-11-20T16:41:02;1.90;;;1.80;;
545;SDS011;259;53.304;9.816;2022-11-20T16:43:28;2.67;;;2.47;;
545;SDS011;259;53.304;9.816;2022-11-20T16:45:54;2.07;;;1.97;;
545;SDS011;259;53.304;9.816;2022-11-20T16:48:19;1.60;;;1.50;;
545;SDS011;259;53.304;9.816;2022-11-20T16:50:46;1.90;;;1.80;;
545;SDS011;259;53.304;9.816;2022-11-20T16:53:17;2.47;;;2.27;;
545;SDS011;259;53.304;9.816;2022-11-20T16:55:43;1.93;;;1.83;;
545;SDS011;259;53.304;9.816;2022-11-20T16:58:09;1.60;;;1.50;;
545;SDS011;259;53.304;9.816;2022-11-20T17:00:38;2.40;;;2.20;;
545;SDS011;259;53.304;9.816;2022-11-20T17:03:05;2.20;;;2.10;;
545;SDS011;259;53.304;9.816;2022-11-20T17:05:31;1.90;;;1.80;;
545;SDS011;259;53.304;9.816;2022-11-20T17:07:58;2.47;;;2.27;;
545;SDS011;259;53.304;9.816;2022-11-20T17:10:24;2.33;;;2.13;;
545;SDS011;259;53.304;9.816;2022-11-20T17:12:49;2.90;;;2.00;;
545;SDS011;259;53.304;9.816;2022-11-20T17:15:15;2.83;;;2.20;;
545;SDS011;259;53.304;9.816;2022-11-20T17:17:41;3.20;;;3.00;;
545;SDS011;259;53.304;9.816;2022-11-20T17:20:06;2.60;;;2.40;;
545;SDS011;259;53.304;9.816;2022-11-20T17:22:33;2.53;;;2.23;;
545;SDS011;259;53.304;9.816;2022-11-20T17:24:58;2.37;;;2.27;;